Time;durP1;ratioP1;P1;durP2;ratioP2;P2;SDS_P1;SDS_P2;PMS_P1;PMS_P2;Temp;Humidity;BMP_temperature;BMP_pressure;BME280_temperature;BME280_humidity;BME280_pressure;Samples;Min_cycle;Max_cycle;Signal;HPM_P1;HPM_P2
2023/07/20 00:02:07;;;;;;;5.53;2.92;;;22.00;47.30;;;;;;5004736;28;20049;-56
2023/07/20 00:04:35;;;;;;;4.60;2.42;;;22.00;47.30;;;;;;5005209;28;21126;-59
2023/07/20 00:07:02;;;;;;;3.97;2.20;;;22.00;47.30;;;;;;5005952;28;20054;-59
2023/07/20 00:09:29;;;;;;;5.22;2.35;;;21.90;47.40;;;;;;5005867;28;20064;-59
2023/07/20 00:11:56;;;;;;;5.75;2.50;;;21.90;47.40;;;;;;5004951;28;20064;-60
2023/07/20 00:14:24;;;;;;;7.03;2.53;;;22.00;47.50;;;;;;5006878;28;20056;-56
2023/07/20 00:16:55;;;;;;;4.95;2.25;;;22.00;47.50;;;;;;5004975;28;20057;-59
2023/07/20 00:19:24;;;;;;;8.45;2.80;;;22.00;47.50;;;;;;5006016;28;20057;-59
2023/07/20 00:21:52;;;;;;;4.32;2.58;;;22.00;47.60;;;;;;5005222;28;20042;-59
2023/07/20 00:24:19;;;;;;;7.03;2.40;;;21.90;47.50;;;;;;5004912;28;20058;-53
2023/07/20 00:26:46;;;;;;;7.18;2.63;;;21.90;47.50;;;;;;5004576;28;20049;-56
2023/07/20 00:29:13;;;;;;;6.00;2.25;;;21.90;47.50;;;;;;5005136;28;20057;-58
2023/07/20 00:31:42;;;;;;;3.90;2.10;;;22.00;47.60;;;;;;5005336;28;20057;-59
2023/07/20 00:34:09;;;;;;;8.60;2.60;;;21.90;47.60;;;;;;5005697;28;20060;-59
2023/07/20 00:36:38;;;;;;;4.70;2.38;;;21.90;47.60;;;;;;5006290;28;20058;-57
2023/07/20 00:39:05;;;;;;;10.55;2.85;;;21.90;47.70;;;;;;5005124;28;20050;-57
2023/07/20 00:41:33;;;;;;;5.35;2.50;;;21.90;47.80;;;;;;5005280;28;20060;-57
2023/07/20 00:44:00;;;;;;;6.57;2.63;;;21.90;48.00;;;;;;5005321;28;20050;-57
2023/07/20 00:46:27;;;;;;;7.88;2.90;;;21.90;48.10;;;;;;5003998;28;20060;-53
2023/07/20 00:48:54;;;;;;;7.18;2.42;;;21.90;48.30;;;;;;5006044;28;20413;-44
2023/07/20 00:51:24;;;;;;;3.63;2.25;;;21.80;48.30;;;;;;5005885;28;20058;-45
2023/07/20 00:53:53;;;;;;;5.25;2.53;;;21.80;48.40;;;;;;5005479;28;20053;-46
2023/07/20 00:56:20;;;;;;;4.50;2.17;;;21.90;48.50;;;;;;5004974;28;20053;-46
2023/07/20 00:58:48;;;;;;;5.28;2.67;;;21.80;48.50;;;;;;5005022;28;20812;-48
2023/07/20 01:01:15;;;;;;;5.25;2.42;;;21.80;48.70;;;;;;5003501;28;20068;-43
2023/07/20 01:03:42;;;;;;;4.93;2.58;;;21.80;48.80;;;;;;5035582;23;20045;-44
2023/07/20 01:06:16;;;;;;;4.15;2.50;;;21.70;48.80;;;;;;5019763;28;20060;-45
2023/07/20 01:08:51;;;;;;;5.93;2.55;;;21.70;49.00;;;;;;5020627;28;20400;-42
2023/07/20 01:11:29;;;;;;;5.53;2.63;;;21.70;49.00;;;;;;5022765;28;20053;-42
2023/07/20 01:13:56;;;;;;;3.42;2.38;;;21.70;49.10;;;;;;5022400;28;20053;-42
2023/07/20 01:16:24;;;;;;;4.82;2.38;;;21.70;49.10;;;;;;5019384;28;20058;-41
2023/07/20 01:18:51;;;;;;;4.53;2.22;;;21.60;49.10;;;;;;5019134;28;20056;-41
2023/07/20 01:21:25;;;;;;;5.70;2.50;;;21.60;49.20;;;;;;5018768;28;20057;-40
2023/07/20 01:24:20;;;;;;;5.60;2.45;;;21.60;49.40;;;;;;5021160;28;20431;-41
2023/07/20 01:27:08;;;;;;;5.50;2.58;;;21.50;49.50;;;;;;5004752;28;20397;-44
2023/07/20 01:29:56;;;;;;;4.88;2.25;;;21.50;49.50;;;;;;5020710;28;20615;-42
2023/07/20 01:32:25;;;;;;;4.10;2.45;;;21.50;49.60;;;;;;5017977;28;20404;-41
2023/07/20 01:34:56;;;;;;;4.53;2.55;;;21.40;49.50;;;;;;5022376;28;20440;-43
2023/07/20 01:37:27;;;;;;;4.97;2.28;;;21.40;49.60;;;;;;5017787;28;20069;-45
2023/07/20 01:39:55;;;;;;;5.25;2.60;;;21.30;49.70;;;;;;5020327;28;20566;-46
2023/07/20 01:42:23;;;;;;;5.45;2.60;;;21.30;49.80;;;;;;5021141;28;20076;-42
2023/07/20 01:44:53;;;;;;;5.78;2.50;;;21.30;49.90;;;;;;5020928;28;20064;-45
2023/07/20 01:47:20;;;;;;;3.95;2.20;;;21.30;50.00;;;;;;5017448;28;20057;-43
2023/07/20 01:49:49;;;;;;;6.82;2.50;;;21.30;50.10;;;;;;5019496;28;20672;-45
2023/07/20 01:52:16;;;;;;;3.58;2.38;;;21.30;50.20;;;;;;5017424;28;20057;-44
2023/07/20 01:54:43;;;;;;;5.65;2.55;;;21.20;50.60;;;;;;5020217;28;20049;-44
2023/07/20 01:57:10;;;;;;;5.55;2.72;;;21.20;50.30;;;;;;5021784;28;20064;-44
2023/07/20 01:59:38;;;;;;;4.93;2.50;;;21.20;50.40;;;;;;5015698;28;20045;-44
2023/07/20 02:02:05;;;;;;;4.80;2.60;;;21.20;50.40;;;;;;5018314;28;20052;-40
2023/07/20 02:04:32;;;;;;;3.22;2.03;;;21.10;50.50;;;;;;5020533;28;20053;-42
2023/07/20 02:07:01;;;;;;;5.22;2.10;;;21.10;50.50;;;;;;5014541;28;20053;-44
2023/07/20 02:09:28;;;;;;;5.38;2.47;;;21.10;50.60;;;;;;5020347;28;20046;-44
2023/07/20 02:11:55;;;;;;;3.53;2.00;;;21.10;50.60;;;;;;5020180;28;20056;-45
2023/07/20 02:14:23;;;;;;;5.03;2.50;;;21.00;50.70;;;;;;5021241;28;20056;-43
2023/07/20 02:16:52;;;;;;;6.47;2.20;;;21.00;50.70;;;;;;5016316;28;20057;-45
2023/07/20 02:19:19;;;;;;;3.63;2.08;;;21.00;50.70;;;;;;5018285;28;20054;-41
2023/07/20 02:21:47;;;;;;;2.28;1.70;;;21.00;50.80;;;;;;5018991;28;20064;-42
2023/07/20 02:24:15;;;;;;;5.80;1.90;;;21.00;50.80;;;;;;5019493;28;20057;-43
2023/07/20 02:26:43;;;;;;;3.50;2.33;;;21.00;50.90;;;;;;5017310;28;20061;-41
2023/07/20 02:29:11;;;;;;;4.80;2.40;;;20.90;51.00;;;;;;5020215;28;20053;-43
2023/07/20 02:31:39;;;;;;;5.35;2.15;;;20.90;51.00;;;;;;5018402;28;20064;-44
2023/07/20 02:34:06;;;;;;;4.25;1.92;;;20.90;51.00;;;;;;5021805;28;20060;-46
2023/07/20 02:36:35;;;;;;;3.03;1.70;;;20.90;51.10;;;;;;5021992;28;20045;-44
2023/07/20 02:39:03;;;;;;;5.18;2.08;;;20.80;51.10;;;;;;5022914;28;20045;-44
2023/07/20 02:41:34;;;;;;;3.28;2.03;;;20.80;51.10;;;;;;5024600;28;20045;-43
2023/07/20 02:44:01;;;;;;;4.55;2.35;;;20.80;51.10;;;;;;5023682;28;20064;-41
2023/07/20 02:46:30;;;;;;;5.00;2.47;;;20.80;51.10;;;;;;5020618;28;20057;-43
2023/07/20 02:48:57;;;;;;;4.82;2.25;;;20.80;51.20;;;;;;5024459;28;20057;-40
2023/07/20 02:51:24;;;;;;;3.50;2.03;;;20.70;51.20;;;;;;5019887;28;20084;-42
2023/07/20 02:53:51;;;;;;;3.63;1.90;;;20.70;51.20;;;;;;5021340;28;20429;-41
2023/07/20 02:56:19;;;;;;;3.20;2.22;;;20.70;51.20;;;;;;5024875;28;20057;-43
2023/07/20 02:58:47;;;;;;;5.43;2.15;;;20.70;51.30;;;;;;5025349;28;20061;-41
2023/07/20 03:01:15;;;;;;;4.45;2.17;;;20.60;51.30;;;;;;5021996;28;20072;-43
2023/07/20 03:03:46;;;;;;;7.15;2.70;;;20.60;51.30;;;;;;5022584;28;20061;-40
2023/07/20 03:06:14;;;;;;;3.90;1.90;;;20.60;51.50;;;;;;5024134;28;20058;-42
2023/07/20 03:08:47;;;;;;;4.35;2.33;;;20.60;51.40;;;;;;5024604;28;20057;-41
2023/07/20 03:11:15;;;;;;;4.47;2.22;;;20.50;51.40;;;;;;5024315;28;20081;-43
2023/07/20 03:13:42;;;;;;;4.35;2.15;;;20.50;51.50;;;;;;5023711;28;20420;-41
2023/07/20 03:16:12;;;;;;;5.88;2.25;;;20.50;51.60;;;;;;5021653;28;20046;-42
2023/07/20 03:18:39;;;;;;;3.72;2.20;;;20.50;51.70;;;;;;5023608;28;20069;-43
2023/07/20 03:21:07;;;;;;;5.47;2.00;;;20.40;51.60;;;;;;5022385;28;20046;-43
2023/07/20 03:23:34;;;;;;;3.55;2.10;;;20.40;51.60;;;;;;5019445;28;20061;-42
2023/07/20 03:26:01;;;;;;;4.20;2.15;;;20.40;51.70;;;;;;5022148;28;20065;-43
2023/07/20 03:28:29;;;;;;;4.90;2.25;;;20.30;51.70;;;;;;5022547;28;20057;-41
2023/07/20 03:30:56;;;;;;;5.00;2.30;;;20.30;51.70;;;;;;5020898;28;20054;-41
2023/07/20 03:33:27;;;;;;;6.70;2.70;;;20.30;51.80;;;;;;5024196;28;20049;-43
2023/07/20 03:35:55;;;;;;;6.95;2.67;;;20.30;52.10;;;;;;5023278;28;20057;-43
2023/07/20 03:38:23;;;;;;;6.10;2.63;;;20.30;52.10;;;;;;5022468;28;20057;-44
2023/07/20 03:40:51;;;;;;;5.65;2.40;;;20.20;52.10;;;;;;5012980;28;20045;-41
2023/07/20 03:43:18;;;;;;;4.55;2.38;;;20.20;52.20;;;;;;4967182;28;20061;-42
2023/07/20 03:45:47;;;;;;;6.57;2.58;;;20.10;52.30;;;;;;4965186;28;20058;-43
2023/07/20 03:48:16;;;;;;;3.75;2.10;;;20.10;52.30;;;;;;4966858;28;20054;-41
2023/07/20 03:50:45;;;;;;;6.43;2.35;;;20.10;52.30;;;;;;4967390;28;20057;-41
2023/07/20 03:53:12;;;;;;;3.90;2.25;;;20.00;52.40;;;;;;4968278;28;20063;-40
2023/07/20 03:55:40;;;;;;;4.15;2.50;;;20.00;52.40;;;;;;4968473;28;20061;-43
2023/07/20 03:58:07;;;;;;;4.82;2.50;;;20.00;52.40;;;;;;4967331;28;20075;-46
2023/07/20 04:00:35;;;;;;;8.65;2.85;;;20.00;52.50;;;;;;4966261;28;20047;-43
2023/07/20 04:03:02;;;;;;;6.57;3.45;;;19.90;52.80;;;;;;4966391;28;20058;-41
2023/07/20 04:05:29;;;;;;;7.13;3.40;;;19.90;52.80;;;;;;4967137;28;20066;-45
2023/07/20 04:07:59;;;;;;;5.28;2.58;;;19.90;52.90;;;;;;4966337;28;20055;-44
2023/07/20 04:10:26;;;;;;;7.60;3.00;;;19.80;52.80;;;;;;4966642;28;20051;-41
2023/07/20 04:12:53;;;;;;;6.43;2.80;;;19.80;52.90;;;;;;4968493;28;20069;-43
2023/07/20 04:15:20;;;;;;;7.18;2.53;;;19.80;53.00;;;;;;4965647;28;20139;-46
2023/07/20 04:17:47;;;;;;;8.52;3.00;;;19.80;53.00;;;;;;4968633;28;20050;-41
2023/07/20 04:20:15;;;;;;;4.80;2.45;;;19.70;53.10;;;;;;4967512;28;20058;-42
2023/07/20 04:22:42;;;;;;;5.78;2.28;;;19.70;53.00;;;;;;4967539;28;20518;-42
2023/07/20 04:25:11;;;;;;;3.45;2.15;;;19.70;53.00;;;;;;4967493;28;20047;-42
2023/07/20 04:27:38;;;;;;;4.15;2.45;;;19.70;53.20;;;;;;4965938;28;20058;-41
2023/07/20 04:30:08;;;;;;;5.45;2.42;;;19.70;53.10;;;;;;4966889;28;20054;-41
2023/07/20 04:32:35;;;;;;;4.43;2.72;;;19.70;53.20;;;;;;4966902;28;20059;-41
2023/07/20 04:35:07;;;;;;;9.98;2.28;;;19.70;53.20;;;;;;4965900;28;20058;-42
2023/07/20 04:37:34;;;;;;;5.60;2.55;;;19.70;53.30;;;;;;4965771;28;20050;-45
2023/07/20 04:40:03;;;;;;;3.70;2.22;;;19.70;53.40;;;;;;4966768;28;20059;-43
2023/07/20 04:42:31;;;;;;;3.83;2.53;;;19.70;53.30;;;;;;4968495;28;20486;-41
2023/07/20 04:44:59;;;;;;;7.15;2.55;;;19.80;53.40;;;;;;4966499;28;20101;-44
2023/07/20 04:47:26;;;;;;;3.85;2.08;;;19.80;53.40;;;;;;4965445;28;20055;-42
2023/07/20 04:49:53;;;;;;;6.07;2.10;;;19.80;53.30;;;;;;4966173;28;20064;-41
2023/07/20 04:52:21;;;;;;;5.43;2.40;;;19.80;53.30;;;;;;4967940;28;20053;-41
2023/07/20 04:54:48;;;;;;;8.70;2.75;;;19.80;53.30;;;;;;4966213;28;20080;-41
2023/07/20 04:57:15;;;;;;;5.63;2.67;;;19.80;53.40;;;;;;4965458;28;20049;-41
2023/07/20 04:59:43;;;;;;;11.50;3.63;;;19.90;53.70;;;;;;4965551;28;20443;-42
2023/07/20 05:02:11;;;;;;;9.02;3.80;;;19.90;53.80;;;;;;4964806;28;20061;-43
2023/07/20 05:04:38;;;;;;;7.55;3.13;;;19.90;53.80;;;;;;4965680;28;20075;-42
2023/07/20 05:07:06;;;;;;;6.82;3.38;;;19.90;53.90;;;;;;4967518;28;20051;-42
2023/07/20 05:09:33;;;;;;;4.63;2.50;;;19.90;53.90;;;;;;4965590;28;20058;-42
2023/07/20 05:12:01;;;;;;;5.45;2.80;;;19.90;54.00;;;;;;4965185;28;20065;-42
2023/07/20 05:14:29;;;;;;;10.55;3.75;;;19.90;54.00;;;;;;4965653;28;20069;-41
2023/07/20 05:16:57;;;;;;;6.25;3.03;;;19.90;54.60;;;;;;4963826;28;20053;-43
2023/07/20 05:19:25;;;;;;;6.38;3.30;;;19.90;54.20;;;;;;4967397;28;20055;-39
2023/07/20 05:21:53;;;;;;;13.05;4.95;;;20.00;54.10;;;;;;4964937;28;20418;-41
2023/07/20 05:24:20;;;;;;;9.13;3.97;;;20.00;54.10;;;;;;4966250;28;20050;-46
2023/07/20 05:26:48;;;;;;;9.93;4.65;;;20.00;54.00;;;;;;4964508;28;20491;-41
2023/07/20 05:29:16;;;;;;;9.48;4.75;;;20.00;54.00;;;;;;4966948;28;20065;-41
2023/07/20 05:31:43;;;;;;;11.35;4.72;;;20.00;54.10;;;;;;4963142;28;20525;-41
2023/07/20 05:34:11;;;;;;;10.02;5.20;;;19.90;54.00;;;;;;4965836;28;20054;-43
2023/07/20 05:36:39;;;;;;;9.98;4.75;;;19.90;54.10;;;;;;4964346;28;20499;-42
2023/07/20 05:39:06;;;;;;;9.27;4.88;;;19.90;54.10;;;;;;4965306;28;20065;-41
2023/07/20 05:41:34;;;;;;;10.25;5.07;;;19.90;54.20;;;;;;4964414;28;20069;-42
2023/07/20 05:44:02;;;;;;;11.00;4.93;;;19.80;54.20;;;;;;4964431;28;20057;-44
2023/07/20 05:46:29;;;;;;;12.27;4.55;;;19.80;54.40;;;;;;4963559;28;20066;-47
2023/07/20 05:49:00;;;;;;;10.48;4.00;;;19.80;54.40;;;;;;4966121;28;20129;-44
2023/07/20 05:51:28;;;;;;;15.10;5.47;;;19.80;54.30;;;;;;4965465;28;20494;-48
2023/07/20 05:53:56;;;;;;;16.77;6.88;;;19.80;54.40;;;;;;4966194;28;20055;-47
2023/07/20 05:56:23;;;;;;;15.73;6.10;;;19.90;54.40;;;;;;4964555;28;20070;-46
2023/07/20 05:58:50;;;;;;;13.85;6.10;;;19.80;54.30;;;;;;4966797;28;20529;-48
2023/07/20 06:01:19;;;;;;;11.10;5.90;;;19.90;54.40;;;;;;4962442;28;20069;-49
2023/07/20 06:03:46;;;;;;;10.75;5.65;;;19.90;54.60;;;;;;4965703;28;20054;-44
2023/07/20 06:06:15;;;;;;;8.80;6.00;;;19.90;54.70;;;;;;4966514;28;20058;-42
2023/07/20 06:08:43;;;;;;;13.52;5.68;;;19.90;54.60;;;;;;4964986;28;20057;-40
2023/07/20 06:11:11;;;;;;;12.80;6.15;;;19.90;54.60;;;;;;4964650;28;20054;-42
2023/07/20 06:13:38;;;;;;;10.15;5.20;;;19.90;54.60;;;;;;4964857;28;20301;-42
2023/07/20 06:16:05;;;;;;;11.57;5.80;;;19.90;54.50;;;;;;4963708;28;20054;-43
2023/07/20 06:18:33;;;;;;;11.18;5.65;;;20.00;54.70;;;;;;4963036;28;20058;-43
2023/07/20 06:21:00;;;;;;;14.40;5.80;;;20.00;54.70;;;;;;4964462;28;20476;-40
2023/07/20 06:23:27;;;;;;;8.55;5.68;;;20.00;54.70;;;;;;4966856;28;20057;-41
2023/07/20 06:25:56;;;;;;;15.98;5.85;;;20.00;54.70;;;;;;4965541;28;20055;-44
2023/07/20 06:28:23;;;;;;;7.82;4.97;;;20.10;54.80;;;;;;4965008;28;20059;-46
2023/07/20 06:30:50;;;;;;;10.48;5.20;;;20.10;54.70;;;;;;4962831;28;20074;-44
2023/07/20 06:33:17;;;;;;;10.43;5.65;;;20.20;54.80;;;;;;4964221;28;21052;-46
2023/07/20 06:35:45;;;;;;;11.85;5.72;;;20.20;54.80;;;;;;4964062;28;20058;-46
2023/07/20 06:38:12;;;;;;;13.20;5.32;;;20.20;54.90;;;;;;4966159;28;20058;-43
2023/07/20 06:40:39;;;;;;;13.70;5.10;;;20.30;54.80;;;;;;4963301;28;20061;-42
2023/07/20 06:43:08;;;;;;;10.55;5.13;;;20.30;54.70;;;;;;4963506;28;20051;-42
2023/07/20 06:45:35;;;;;;;11.98;5.60;;;20.30;54.70;;;;;;4963846;28;20058;-39
2023/07/20 06:48:03;;;;;;;10.52;5.35;;;20.40;54.60;;;;;;4963977;28;20075;-41
2023/07/20 06:50:30;;;;;;;10.07;5.28;;;20.40;54.30;;;;;;4965115;28;20058;-47
2023/07/20 06:52:58;;;;;;;8.85;5.15;;;20.40;54.20;;;;;;4965138;28;20053;-41
2023/07/20 06:55:25;;;;;;;13.80;4.85;;;20.40;54.10;;;;;;4964742;28;20050;-41
2023/07/20 06:57:53;;;;;;;11.65;5.25;;;20.50;54.40;;;;;;4964373;28;20054;-43
2023/07/20 07:00:22;;;;;;;8.98;4.30;;;20.50;54.30;;;;;;4963544;28;20398;-43
2023/07/20 07:02:49;;;;;;;16.05;6.10;;;20.60;54.10;;;;;;4963284;28;20407;-45
2023/07/20 07:05:16;;;;;;;11.10;4.95;;;20.60;53.90;;;;;;4964279;28;20063;-46
2023/07/20 07:07:43;;;;;;;8.77;4.15;;;20.60;53.90;;;;;;4963340;28;20494;-46
2023/07/20 07:10:11;;;;;;;12.85;4.55;;;20.70;54.00;;;;;;4964225;28;20054;-45
2023/07/20 07:12:38;;;;;;;8.35;4.47;;;20.70;53.60;;;;;;4964123;28;20047;-42
2023/07/20 07:15:06;;;;;;;10.05;4.47;;;20.70;53.40;;;;;;4963785;28;20419;-42
2023/07/20 07:17:36;;;;;;;11.82;4.55;;;20.70;53.50;;;;;;4962335;28;20065;-45
2023/07/20 07:20:03;;;;;;;7.88;3.83;;;20.70;53.50;;;;;;4965537;28;20406;-42
2023/07/20 07:22:31;;;;;;;8.82;4.35;;;20.80;53.50;;;;;;4968129;28;20058;-42
2023/07/20 07:24:58;;;;;;;9.82;4.80;;;20.80;53.50;;;;;;4967594;28;20058;-44
2023/07/20 07:27:25;;;;;;;16.65;4.88;;;20.90;53.40;;;;;;4967568;28;20376;-44
2023/07/20 07:29:52;;;;;;;8.23;4.72;;;20.90;53.50;;;;;;4968154;28;20403;-50
2023/07/20 07:32:20;;;;;;;14.02;6.00;;;20.90;53.40;;;;;;4967647;28;21417;-46
2023/07/20 07:34:48;;;;;;;8.48;4.00;;;21.00;53.10;;;;;;4967682;28;20533;-41
2023/07/20 07:37:16;;;;;;;10.35;4.57;;;21.00;53.00;;;;;;4968819;28;20054;-42
2023/07/20 07:39:43;;;;;;;8.93;6.00;;;21.00;53.00;;;;;;4966766;28;20046;-43
2023/07/20 07:42:10;;;;;;;9.07;5.22;;;21.10;52.60;;;;;;4968219;28;20062;-44
2023/07/20 07:44:37;;;;;;;9.85;5.68;;;21.10;52.30;;;;;;4966956;28;20059;-42
2023/07/20 07:47:05;;;;;;;14.27;6.72;;;21.10;52.40;;;;;;4965872;28;20047;-45
2023/07/20 07:49:32;;;;;;;8.73;5.63;;;21.10;52.30;;;;;;4966314;28;20392;-49
2023/07/20 07:52:02;;;;;;;8.73;4.47;;;21.10;52.30;;;;;;4969055;28;20046;-41
2023/07/20 07:54:29;;;;;;;11.32;5.80;;;21.20;52.40;;;;;;4967932;28;20509;-44
2023/07/20 07:56:57;;;;;;;10.65;6.30;;;21.20;52.40;;;;;;4966823;28;20054;-45
2023/07/20 07:59:24;;;;;;;8.93;5.18;;;21.20;52.20;;;;;;4966570;28;20061;-42
2023/07/20 08:01:52;;;;;;;9.10;5.20;;;21.30;52.10;;;;;;4964707;28;20070;-47
2023/07/20 08:04:19;;;;;;;7.90;5.03;;;21.30;52.00;;;;;;4967144;28;20061;-43
2023/07/20 08:06:46;;;;;;;7.53;4.75;;;21.40;52.20;;;;;;4967912;28;20391;-43
2023/07/20 08:09:15;;;;;;;8.07;5.55;;;21.40;52.20;;;;;;4966379;28;20055;-44
2023/07/20 08:11:42;;;;;;;9.20;5.97;;;21.50;52.10;;;;;;4967001;28;20430;-44
2023/07/20 08:14:09;;;;;;;13.32;6.63;;;21.50;51.90;;;;;;4966898;28;20059;-42
2023/07/20 08:16:37;;;;;;;13.85;7.28;;;21.60;52.00;;;;;;4965839;28;20059;-43
2023/07/20 08:19:04;;;;;;;12.75;6.68;;;21.60;51.60;;;;;;4966545;28;20403;-42
2023/07/20 08:21:31;;;;;;;10.43;7.03;;;21.70;51.30;;;;;;4967021;28;20340;-43
2023/07/20 08:23:58;;;;;;;9.85;5.88;;;21.70;51.20;;;;;;4965077;28;20442;-45
2023/07/20 08:26:27;;;;;;;8.30;5.65;;;21.70;51.20;;;;;;4965920;28;20063;-47
2023/07/20 08:28:54;;;;;;;9.75;6.53;;;21.80;51.30;;;;;;4967417;28;20065;-48
2023/07/20 08:31:21;;;;;;;7.78;5.18;;;21.80;50.70;;;;;;4964811;28;20061;-47
2023/07/20 08:33:49;;;;;;;8.27;5.05;;;21.80;50.40;;;;;;4966719;28;20054;-48
2023/07/20 08:36:17;;;;;;;8.57;4.45;;;21.90;50.50;;;;;;4965759;28;20059;-43
2023/07/20 08:38:44;;;;;;;8.45;4.70;;;21.90;50.40;;;;;;4966706;28;20061;-42
2023/07/20 08:41:12;;;;;;;7.03;5.07;;;21.90;50.40;;;;;;4965909;28;22075;-45
2023/07/20 08:43:43;;;;;;;5.45;4.57;;;21.90;50.00;;;;;;4966126;28;20062;-44
2023/07/20 08:46:14;;;;;;;7.22;3.92;;;21.90;49.90;;;;;;4964690;28;20081;-44
2023/07/20 08:48:42;;;;;;;6.70;4.25;;;21.90;49.80;;;;;;4968962;28;20059;-48
2023/07/20 08:51:12;;;;;;;7.30;3.42;;;22.00;49.40;;;;;;4966259;28;20498;-47
2023/07/20 08:53:40;;;;;;;6.72;2.83;;;22.00;49.70;;;;;;4966214;28;20557;-49
2023/07/20 08:56:10;;;;;;;8.68;4.45;;;22.00;49.10;;;;;;4965200;28;20055;-47
2023/07/20 08:58:40;;;;;;;5.20;2.80;;;22.10;47.80;;;;;;4965697;28;20050;-45
2023/07/20 09:01:08;;;;;;;4.25;2.92;;;22.10;47.50;;;;;;4964541;28;20062;-45
2023/07/20 09:03:39;;;;;;;6.40;3.40;;;22.10;47.20;;;;;;4965351;28;20050;-46
2023/07/20 09:06:06;;;;;;;5.35;4.30;;;22.10;47.10;;;;;;4966284;28;20513;-45
2023/07/20 09:08:34;;;;;;;6.43;3.67;;;22.10;46.50;;;;;;4965199;28;20054;-48
2023/07/20 09:11:01;;;;;;;4.15;2.97;;;22.10;46.90;;;;;;4964915;28;20514;-43
2023/07/20 09:13:28;;;;;;;6.05;4.20;;;22.00;47.40;;;;;;4965618;28;20066;-48
2023/07/20 09:15:59;;;;;;;5.63;3.42;;;22.00;47.10;;;;;;4965140;28;20058;-46
2023/07/20 09:18:27;;;;;;;8.85;4.20;;;22.00;47.10;;;;;;4966600;28;20050;-45
2023/07/20 09:21:38;;;;;;;5.32;3.47;;;22.00;47.60;;;;;;4965710;28;20062;-44
2023/07/20 09:24:07;;;;;;;5.35;2.80;;;22.10;47.90;;;;;;4964996;28;20051;-45
2023/07/20 09:26:42;;;;;;;7.20;2.50;;;22.20;48.30;;;;;;4964229;28;20057;-44
2023/07/20 09:29:10;;;;;;;3.10;2.63;;;22.20;48.30;;;;;;4965258;28;20058;-46
2023/07/20 09:31:39;;;;;;;7.85;3.28;;;22.20;48.30;;;;;;4963345;28;20059;-44
2023/07/20 09:34:07;;;;;;;4.45;3.08;;;22.30;47.40;;;;;;4965217;28;20054;-43
2023/07/20 09:36:36;;;;;;;5.07;3.00;;;22.40;46.10;;;;;;4964671;28;20051;-42
2023/07/20 09:39:04;;;;;;;5.88;3.10;;;22.40;46.10;;;;;;4964873;28;20046;-40
2023/07/20 09:41:41;;;;;;;4.38;3.30;;;22.40;46.50;;;;;;4966879;28;20399;-41
2023/07/20 09:44:10;;;;;;;7.28;3.50;;;22.50;46.20;;;;;;4965801;28;20046;-40
2023/07/20 09:46:46;;;;;;;4.88;3.30;;;22.60;46.00;;;;;;4963823;28;20058;-42
2023/07/20 09:49:13;;;;;;;3.15;2.22;;;22.60;46.10;;;;;;4965336;28;20529;-41
2023/07/20 09:51:42;;;;;;;4.70;2.50;;;22.70;46.10;;;;;;4964432;28;20059;-40
2023/07/20 09:54:09;;;;;;;4.32;2.70;;;22.70;46.50;;;;;;4963797;28;20050;-42
2023/07/20 09:56:37;;;;;;;4.53;2.63;;;22.70;45.70;;;;;;4966068;28;20054;-39
2023/07/20 09:59:05;;;;;;;4.57;2.15;;;22.80;46.00;;;;;;4965504;28;20407;-44
2023/07/20 10:01:35;;;;;;;7.10;2.20;;;22.90;46.30;;;;;;4966495;28;20058;-44
2023/07/20 10:04:09;;;;;;;4.82;2.60;;;22.90;46.00;;;;;;4965331;28;20533;-46
2023/07/20 10:06:40;;;;;;;4.78;2.72;;;23.00;44.30;;;;;;4966100;28;20061;-43
2023/07/20 10:09:09;;;;;;;5.25;2.53;;;23.00;44.80;;;;;;4965517;28;20061;-43
2023/07/20 10:11:37;;;;;;;4.15;2.08;;;23.00;45.50;;;;;;4965337;28;20054;-43
2023/07/20 10:14:06;;;;;;;6.30;2.65;;;23.10;44.70;;;;;;4964204;28;20053;-45
2023/07/20 10:16:37;;;;;;;4.95;2.17;;;23.10;44.70;;;;;;4963600;28;20415;-43
2023/07/20 10:19:08;;;;;;;4.97;2.80;;;23.10;43.90;;;;;;4963058;28;20499;-45
2023/07/20 10:21:41;;;;;;;2.55;2.03;;;23.10;44.40;;;;;;4965751;28;20542;-45
2023/07/20 10:24:11;;;;;;;2.22;1.73;;;23.20;44.30;;;;;;4965273;28;20065;-45
2023/07/20 10:26:39;;;;;;;5.40;2.20;;;23.20;44.10;;;;;;4965867;28;20055;-41
2023/07/20 10:29:07;;;;;;;3.20;2.22;;;23.30;44.30;;;;;;4966641;28;20062;-54
2023/07/20 10:31:35;;;;;;;4.57;1.70;;;23.30;43.90;;;;;;4963466;28;20058;-44
2023/07/20 10:34:03;;;;;;;3.78;1.90;;;23.30;44.20;;;;;;4965238;28;20050;-53
2023/07/20 10:36:32;;;;;;;4.63;2.08;;;23.30;43.70;;;;;;4964210;28;20050;-52
2023/07/20 10:39:00;;;;;;;8.30;2.20;;;23.40;43.90;;;;;;4963226;28;20059;-54
2023/07/20 10:41:34;;;;;;;4.28;1.70;;;23.50;43.00;;;;;;4965116;28;20059;-52
2023/07/20 10:44:02;;;;;;;3.20;2.20;;;23.50;43.30;;;;;;4964607;28;20050;-53
2023/07/20 10:46:44;;;;;;;9.07;2.00;;;23.50;42.80;;;;;;4962747;28;20051;-48
2023/07/20 10:49:12;;;;;;;5.90;2.33;;;23.60;42.70;;;;;;4964415;28;20111;-48
2023/07/20 10:51:42;;;;;;;3.65;1.80;;;23.60;41.80;;;;;;4965525;28;20518;-51
2023/07/20 10:54:30;;;;;;;3.88;2.10;;;23.60;41.50;;;;;;4963993;28;20375;-52
2023/07/20 10:57:18;;;;;;;4.80;2.05;;;23.60;41.90;;;;;;4968273;28;20495;-54
2023/07/20 10:59:48;;;;;;;3.70;2.10;;;23.60;42.10;;;;;;4968188;28;20050;-51
2023/07/20 11:02:19;;;;;;;3.22;1.83;;;23.70;42.10;;;;;;4966174;28;20065;-45
2023/07/20 11:04:47;;;;;;;2.47;1.40;;;23.60;42.30;;;;;;4969748;28;20447;-52
2023/07/20 11:07:38;;;;;;;7.03;2.67;;;23.70;42.90;;;;;;4969181;28;20054;-48
2023/07/20 11:10:15;;;;;;;4.00;2.40;;;23.70;41.40;;;;;;4968292;28;20489;-55
2023/07/20 11:12:42;;;;;;;4.95;1.92;;;23.70;40.80;;;;;;4967256;28;20062;-51
2023/07/20 11:15:10;;;;;;;3.03;1.70;;;23.70;41.20;;;;;;4967523;28;20054;-47
2023/07/20 11:17:38;;;;;;;3.95;2.20;;;23.70;41.40;;;;;;4967350;28;20055;-49
2023/07/20 11:20:06;;;;;;;5.22;2.22;;;23.70;41.60;;;;;;4968219;28;20046;-52
2023/07/20 11:22:36;;;;;;;2.90;1.88;;;23.60;41.00;;;;;;4968489;28;20061;-53
2023/07/20 11:25:10;;;;;;;4.78;2.38;;;23.60;41.40;;;;;;4965304;28;20055;-50
2023/07/20 11:27:47;;;;;;;4.72;1.90;;;23.60;41.80;;;;;;4967365;28;20066;-49
2023/07/20 11:30:17;;;;;;;3.90;1.50;;;23.60;41.30;;;;;;4967567;28;20491;-47
2023/07/20 11:32:49;;;;;;;1.75;1.40;;;23.60;41.90;;;;;;4968221;28;20055;-49
2023/07/20 11:35:16;;;;;;;2.65;1.48;;;23.60;42.00;;;;;;4968720;28;20061;-54
2023/07/20 11:37:45;;;;;;;3.28;1.67;;;23.70;41.90;;;;;;4966779;28;20047;-56
2023/07/20 11:40:12;;;;;;;3.97;1.85;;;23.70;41.80;;;;;;4967895;28;20059;-49
2023/07/20 11:42:40;;;;;;;3.67;1.30;;;23.80;41.30;;;;;;4966690;28;20058;-53
2023/07/20 11:45:08;;;;;;;2.20;1.40;;;23.90;41.30;;;;;;4967385;28;20038;-54
2023/07/20 11:47:41;;;;;;;5.85;1.35;;;23.90;41.60;;;;;;4966520;28;20054;-55
2023/07/20 11:50:11;;;;;;;2.53;1.40;;;24.00;41.70;;;;;;4967593;28;20058;-52
2023/07/20 11:52:38;;;;;;;4.80;1.63;;;24.10;40.60;;;;;;4967848;28;20055;-52
2023/07/20 11:55:08;;;;;;;7.18;1.50;;;24.10;40.90;;;;;;4966963;28;20415;-57
2023/07/20 11:57:35;;;;;;;2.53;1.50;;;24.20;41.10;;;;;;4967434;28;20066;-51
2023/07/20 12:00:08;;;;;;;3.80;1.63;;;24.20;41.10;;;;;;4966736;28;20062;-48
2023/07/20 12:02:36;;;;;;;4.65;1.45;;;24.30;39.50;;;;;;4965438;28;20054;-46
2023/07/20 12:05:04;;;;;;;2.92;1.50;;;24.40;39.20;;;;;;4968307;28;20061;-49
2023/07/20 12:07:37;;;;;;;4.53;1.90;;;24.30;39.60;;;;;;4966306;28;20085;-48
2023/07/20 12:10:07;;;;;;;7.55;1.92;;;24.30;39.60;;;;;;4968541;28;20058;-52
2023/07/20 12:12:34;;;;;;;2.90;2.22;;;24.30;39.40;;;;;;4971951;28;20055;-49
2023/07/20 12:15:15;;;;;;;5.15;2.20;;;24.20;40.30;;;;;;4967003;28;20047;-53
2023/07/20 12:17:45;;;;;;;4.05;1.70;;;24.20;40.80;;;;;;4967105;28;20054;-53
2023/07/20 12:20:13;;;;;;;4.13;1.70;;;24.20;41.20;;;;;;4966991;28;20062;-51
2023/07/20 12:22:41;;;;;;;2.63;1.40;;;24.30;40.10;;;;;;4966173;28;20073;-45
2023/07/20 12:25:10;;;;;;;5.05;1.75;;;24.30;40.30;;;;;;4966792;28;20521;-49
2023/07/20 12:27:38;;;;;;;2.92;1.50;;;24.30;40.30;;;;;;4966784;28;20510;-49
2023/07/20 12:30:07;;;;;;;5.03;2.25;;;24.40;39.80;;;;;;4966850;28;20055;-54
2023/07/20 12:32:34;;;;;;;2.88;1.73;;;24.50;39.40;;;;;;4965686;28;20062;-51
2023/07/20 12:35:02;;;;;;;2.95;1.58;;;24.50;39.60;;;;;;4966132;28;20050;-53
2023/07/20 12:37:29;;;;;;;4.03;2.00;;;24.50;39.60;;;;;;4966574;28;20058;-54
2023/07/20 12:39:56;;;;;;;3.58;2.20;;;24.50;38.80;;;;;;4966363;28;20069;-45
2023/07/20 12:42:25;;;;;;;3.13;2.13;;;24.50;39.00;;;;;;4967167;28;20074;-54
2023/07/20 12:44:53;;;;;;;4.93;1.90;;;24.50;40.10;;;;;;4967328;28;20046;-49
2023/07/20 12:47:20;;;;;;;2.92;1.70;;;24.50;39.70;;;;;;4965049;28;20059;-47
2023/07/20 12:49:47;;;;;;;6.47;1.80;;;24.50;39.30;;;;;;4967787;28;20403;-46
2023/07/20 12:52:14;;;;;;;2.75;1.70;;;24.50;38.50;;;;;;4965829;28;20059;-45
2023/07/20 12:54:42;;;;;;;4.25;1.23;;;24.50;38.50;;;;;;4965934;28;20062;-41